TFM - Tactical Decision Aid
ID: Runway Winds: CIG/VIS Threshold:

KELM - Elmira-Corning Rgnl, NY, US

Updated at: 1835 UTC 26 Oct 2021
Latest TAF at: 1752 UTC 26 Oct 2021

TAF Board

Time1753Z 26/19Z 26/20Z 26/21Z 26/22Z 26/23Z 27/00Z 27/01Z 27/02Z 27/03Z 27/04Z 27/05Z 27/06Z 27/07Z>>
Type OBS PRVL
  [TEMP]  
PRVL PRVL PRVL PRVL PRVL PRVL PRVL PRVL PRVL PRVL PRVL PRVL
VIS 3 4 2 2 2 2 3 3 3 3 3 3 3 3
CIG 20 25
  [15]  
8 8 8 8 7 7 7 7 7 7 7 7
Cover OVC OVC
  [OVC]  
OVC OVC OVC OVC OVC OVC OVC OVC OVC OVC OVC OVC
FltCat MVFR MVFR
  [MVFR]  
IFR IFR IFR IFR IFR IFR IFR IFR IFR IFR IFR IFR
WX RA RA BR
  [--]  
RA BR RA BR RA BR RA BR -RA BR -RA BR -RA BR -RA BR -RA BR -RA BR -RA BR -RA BR
WDir VRB 300
[300]
340 340 340 340 350 350 350 350 350 350 350 350
WSpd 0 10
  [10]  
10 10 10 10 10 10 10 10 10 10 10 10
WGst -- --
  [--]  
-- -- -- -- -- -- -- -- -- -- -- --

TDA Impact Legend

  None Marginal Slight Moderate High
Visibility (sm) >5 3≤X≤5 2≤X<3 0.5≤X<2 <0.5
Ceiling (100 ft) >30 10≤X≤30 12≤X<10 2≤X<12 <2
Wind Speed (kt) <15 15≤X<25 25≤X<30 ≥30
Wind Gust (kt) <15 15≤X<25 25≤X<35 ≥35
Weather No Wx Reported VCTS -TS,-FZRA TS,FZRA +TS,+FZRA
TAF
KELM 261752Z 2618/2718 30010KT 4SM RA BR BKN025 OVC035
  TEMPO 2618/2620 OVC015
  FM262000 34010KT 2SM RA BR OVC008
  FM270000 35010KT 3SM -RA BR OVC007
  FM270900 34010KT P6SM OVC007
  FM271500 35010KT P6SM BKN015


METAR
KELM 261753Z 00000KT 3SM RA BKN020 OVC043 09/07 A2953 RMK AO2 SLP000 P0011 60060 T00940067 10133 20094 58010
KELM 261710Z 28008KT 3SM RA BR BKN020 OVC043 10/08 A2954 RMK AO2 P0003 T01000078
KELM 261653Z 32007KT 260V010 4SM RA BR SCT025 BKN030 OVC036 10/08 A2956 RMK AO2 SLP008 P0012 T01000078
KELM 261640Z VRB04KT 2 1/2SM RA BR FEW017 BKN023 OVC036 10/08 A2956 RMK AO2 P0009 T01000078
KELM 261553Z 31008KT 270V350 4SM RA FEW016 OVC021 11/08 A2957 RMK AO2 SLP014 P0010 T01110083
KELM 261532Z 32008G19KT 4SM RA FEW016 BKN023 OVC033 11/08 A2957 RMK AO2 P0008 T01110083

Radar Display
Forecast Discussion